ANA371 RJGG-RJFU
Flight info
| Callsign | ANA371 |
|---|---|
| Flight time | 1h 33m |
| Altitude | 28000 |
| Route | HIKNE Y207 ARASI Y20 KAMMY Y204 OHGIE |
| Aircraft | B738/M-SDE2E3FGHIRWXY/LB1 |
Departure
| Time | 2026-04-23 00:51 |
|---|---|
| Airport | Chubu Centrair International Airport (RJGG) |
Arrival
| Time | 2026-04-23 02:25 |
|---|---|
| Airport | Nagasaki Airport (RJFU) |
| Time | Latitude | Longitude | Altitude | Speed | Heading |
|---|---|---|---|---|---|
| 2026-04-23 00:22 | 34.86294 | 136.81214 | 28 ft | 0 kts | 87° |
| 2026-04-23 00:38 | 34.86294 | 136.81209 | 28 ft | 2 kts | 87° |
| 2026-04-23 00:38 | 34.86293 | 136.81189 | 28 ft | 2 kts | 87° |
| 2026-04-23 00:39 | 34.86292 | 136.81169 | 28 ft | 2 kts | 87° |
| 2026-04-23 00:39 | 34.86292 | 136.81149 | 28 ft | 2 kts | 87° |
| 2026-04-23 00:39 | 34.86291 | 136.81141 | 28 ft | 0 kts | 87° |
| 2026-04-23 00:42 | 34.86293 | 136.81143 | 28 ft | 1 kts | 67° |
| 2026-04-23 00:42 | 34.86299 | 136.81141 | 28 ft | 1 kts | 343° |
| 2026-04-23 00:42 | 34.86318 | 136.81118 | 28 ft | 7 kts | 318° |
| 2026-04-23 00:43 | 34.86349 | 136.81051 | 28 ft | 11 kts | 275° |
| 2026-04-23 00:43 | 34.86337 | 136.80942 | 28 ft | 14 kts | 258° |
| 2026-04-23 00:43 | 34.86318 | 136.80830 | 28 ft | 11 kts | 256° |
| 2026-04-23 00:43 | 34.86253 | 136.80793 | 27 ft | 11 kts | 170° |
| 2026-04-23 00:44 | 34.86179 | 136.80812 | 27 ft | 11 kts | 167° |
| 2026-04-23 00:44 | 34.86106 | 136.80830 | 27 ft | 10 kts | 168° |
| 2026-04-23 00:44 | 34.86036 | 136.80848 | 27 ft | 10 kts | 168° |
| 2026-04-23 00:44 | 34.85968 | 136.80865 | 27 ft | 10 kts | 168° |
| 2026-04-23 00:45 | 34.85884 | 136.80885 | 27 ft | 15 kts | 169° |
| 2026-04-23 00:45 | 34.85764 | 136.80914 | 27 ft | 20 kts | 168° |
| 2026-04-23 00:45 | 34.85629 | 136.80947 | 27 ft | 20 kts | 169° |
| 2026-04-23 00:45 | 34.85496 | 136.80978 | 27 ft | 19 kts | 169° |
| 2026-04-23 00:46 | 34.85368 | 136.81009 | 27 ft | 18 kts | 169° |
| 2026-04-23 00:46 | 34.85244 | 136.81039 | 27 ft | 18 kts | 168° |
| 2026-04-23 00:46 | 34.85124 | 136.81068 | 27 ft | 17 kts | 168° |
| 2026-04-23 00:46 | 34.85011 | 136.81095 | 27 ft | 17 kts | 169° |
| 2026-04-23 00:47 | 34.84900 | 136.81120 | 27 ft | 16 kts | 169° |
| 2026-04-23 00:47 | 34.84792 | 136.81147 | 27 ft | 15 kts | 168° |
| 2026-04-23 00:47 | 34.84690 | 136.81172 | 27 ft | 15 kts | 168° |
| 2026-04-23 00:47 | 34.84592 | 136.81195 | 27 ft | 14 kts | 169° |
| 2026-04-23 00:48 | 34.84497 | 136.81218 | 27 ft | 13 kts | 168° |
| 2026-04-23 00:48 | 34.84407 | 136.81239 | 27 ft | 13 kts | 173° |
| 2026-04-23 00:48 | 34.84348 | 136.81174 | 27 ft | 13 kts | 258° |
| 2026-04-23 00:48 | 34.84331 | 136.81072 | 28 ft | 12 kts | 258° |
| 2026-04-23 00:49 | 34.84325 | 136.81039 | 29 ft | 0 kts | 258° |
| 2026-04-23 00:49 | 34.84324 | 136.81036 | 29 ft | 1 kts | 258° |
| 2026-04-23 00:49 | 34.84318 | 136.81000 | 24 ft | 8 kts | 258° |
| 2026-04-23 00:50 | 34.84320 | 136.80916 | 21 ft | 9 kts | 300° |
| 2026-04-23 00:50 | 34.84370 | 136.80888 | 22 ft | 8 kts | 348° |
| 2026-04-23 00:50 | 34.84516 | 136.80853 | 25 ft | 56 kts | 349° |
| 2026-04-23 00:50 | 34.85181 | 136.80694 | 27 ft | 135 kts | 349° |
| 2026-04-23 00:51 | 34.86277 | 136.80410 | 296 ft | 180 kts | 348° |
| 2026-04-23 00:51 | 34.87530 | 136.80064 | 1213 ft | 194 kts | 349° |
| 2026-04-23 00:51 | 34.88954 | 136.79562 | 1683 ft | 230 kts | 343° |
| 2026-04-23 00:51 | 34.90552 | 136.78901 | 2086 ft | 256 kts | 342° |
| 2026-04-23 00:52 | 34.92276 | 136.78184 | 2705 ft | 266 kts | 342° |
| 2026-04-23 00:52 | 34.94056 | 136.77449 | 3422 ft | 272 kts | 342° |
| 2026-04-23 00:52 | 34.95843 | 136.76679 | 4317 ft | 274 kts | 335° |
| 2026-04-23 00:52 | 34.97340 | 136.75234 | 5059 ft | 281 kts | 305° |
| 2026-04-23 00:53 | 34.98072 | 136.73047 | 5839 ft | 281 kts | 274° |
| 2026-04-23 00:53 | 34.97965 | 136.70688 | 6628 ft | 279 kts | 258° |
| 2026-04-23 00:53 | 34.97632 | 136.68368 | 7530 ft | 275 kts | 257° |
| 2026-04-23 00:53 | 34.97299 | 136.66093 | 8452 ft | 272 kts | 257° |
| 2026-04-23 00:54 | 34.97018 | 136.63817 | 9313 ft | 274 kts | 266° |
| 2026-04-23 00:54 | 34.97382 | 136.61518 | 10134 ft | 281 kts | 288° |
| 2026-04-23 00:54 | 34.98401 | 136.59399 | 10527 ft | 302 kts | 300° |
| 2026-04-23 00:54 | 34.99695 | 136.57241 | 10680 ft | 326 kts | 302° |
| 2026-04-23 00:55 | 35.01114 | 136.54973 | 10852 ft | 347 kts | 303° |
| 2026-04-23 00:55 | 35.02627 | 136.52560 | 11001 ft | 367 kts | 303° |
| 2026-04-23 00:55 | 35.04195 | 136.50039 | 11140 ft | 385 kts | 303° |
| 2026-04-23 00:55 | 35.05844 | 136.47364 | 11459 ft | 395 kts | 303° |
| 2026-04-23 00:56 | 35.07487 | 136.44684 | 12193 ft | 393 kts | 303° |
| 2026-04-23 00:56 | 35.09133 | 136.41985 | 12659 ft | 399 kts | 303° |
| 2026-04-23 00:56 | 35.10768 | 136.39291 | 13135 ft | 403 kts | 302° |
| 2026-04-23 00:56 | 35.12440 | 136.36530 | 13755 ft | 404 kts | 302° |
| 2026-04-23 00:57 | 35.14118 | 136.33756 | 14181 ft | 407 kts | 302° |
| 2026-04-23 00:57 | 35.15803 | 136.30966 | 14680 ft | 409 kts | 302° |
| 2026-04-23 00:57 | 35.17494 | 136.28166 | 15169 ft | 411 kts | 302° |
| 2026-04-23 00:57 | 35.19195 | 136.25346 | 15633 ft | 413 kts | 301° |
| 2026-04-23 00:58 | 35.20905 | 136.22510 | 16059 ft | 415 kts | 301° |
| 2026-04-23 00:58 | 35.22454 | 136.19537 | 16449 ft | 410 kts | 288° |
| 2026-04-23 00:58 | 35.23189 | 136.16229 | 16868 ft | 403 kts | 273° |
| 2026-04-23 00:58 | 35.23178 | 136.12833 | 17314 ft | 397 kts | 259° |
| 2026-04-23 00:59 | 35.22665 | 136.09509 | 17766 ft | 397 kts | 256° |
| 2026-04-23 00:59 | 35.22122 | 136.06198 | 18151 ft | 399 kts | 256° |
| 2026-04-23 00:59 | 35.21597 | 136.02863 | 18470 ft | 401 kts | 257° |
| 2026-04-23 00:59 | 35.21094 | 135.99500 | 18834 ft | 401 kts | 257° |
| 2026-04-23 01:00 | 35.20603 | 135.96134 | 19203 ft | 402 kts | 257° |
| 2026-04-23 01:00 | 35.20112 | 135.92767 | 19545 ft | 402 kts | 258° |
| 2026-04-23 01:00 | 35.19619 | 135.89401 | 19949 ft | 401 kts | 258° |
| 2026-04-23 01:00 | 35.19126 | 135.86058 | 20382 ft | 400 kts | 258° |
| 2026-04-23 01:01 | 35.18629 | 135.82694 | 20573 ft | 404 kts | 258° |
| 2026-04-23 01:01 | 35.18124 | 135.79297 | 20860 ft | 405 kts | 258° |
| 2026-04-23 01:01 | 35.17585 | 135.75922 | 21191 ft | 405 kts | 257° |
| 2026-04-23 01:01 | 35.17015 | 135.72553 | 21468 ft | 405 kts | 257° |
| 2026-04-23 01:02 | 35.16434 | 135.69184 | 21748 ft | 406 kts | 257° |
| 2026-04-23 01:02 | 35.15851 | 135.65805 | 22050 ft | 406 kts | 257° |
| 2026-04-23 01:02 | 35.15271 | 135.62427 | 22357 ft | 406 kts | 257° |
| 2026-04-23 01:02 | 35.14696 | 135.59048 | 22637 ft | 407 kts | 258° |
| 2026-04-23 01:03 | 35.14117 | 135.55647 | 22865 ft | 409 kts | 258° |
| 2026-04-23 01:03 | 35.13536 | 135.52245 | 23071 ft | 411 kts | 258° |
| 2026-04-23 01:03 | 35.12951 | 135.48813 | 23288 ft | 412 kts | 258° |
| 2026-04-23 01:03 | 35.12367 | 135.45392 | 23512 ft | 412 kts | 258° |
| 2026-04-23 01:04 | 35.11781 | 135.41965 | 23698 ft | 413 kts | 258° |
| 2026-04-23 01:04 | 35.11194 | 135.38540 | 23928 ft | 412 kts | 258° |
| 2026-04-23 01:04 | 35.10011 | 135.31635 | 24100 ft | 417 kts | 258° |
| 2026-04-23 01:05 | 35.09413 | 135.28167 | 24301 ft | 417 kts | 258° |
| 2026-04-23 01:05 | 35.08824 | 135.24743 | 24456 ft | 418 kts | 258° |
| 2026-04-23 01:05 | 35.08221 | 135.21222 | 24570 ft | 420 kts | 258° |
| 2026-04-23 01:05 | 35.07631 | 135.17768 | 24705 ft | 421 kts | 258° |
| 2026-04-23 01:06 | 35.07024 | 135.14216 | 24845 ft | 422 kts | 257° |
| 2026-04-23 01:06 | 35.06459 | 135.10924 | 24976 ft | 423 kts | 257° |
| 2026-04-23 01:06 | 35.05840 | 135.07325 | 25156 ft | 423 kts | 257° |
| 2026-04-23 01:06 | 35.05235 | 135.03806 | 25312 ft | 423 kts | 258° |
| 2026-04-23 01:07 | 35.04631 | 135.00293 | 25412 ft | 425 kts | 257° |
| 2026-04-23 01:07 | 35.04019 | 134.96755 | 25527 ft | 426 kts | 257° |
| 2026-04-23 01:07 | 35.03407 | 134.93218 | 25657 ft | 427 kts | 257° |
| 2026-04-23 01:07 | 35.02787 | 134.89670 | 25751 ft | 428 kts | 257° |
| 2026-04-23 01:08 | 35.02159 | 134.86121 | 25880 ft | 428 kts | 257° |
| 2026-04-23 01:08 | 35.01531 | 134.82584 | 26085 ft | 426 kts | 257° |
| 2026-04-23 01:08 | 35.00904 | 134.79049 | 26284 ft | 425 kts | 257° |
| 2026-04-23 01:08 | 35.00279 | 134.75530 | 26499 ft | 424 kts | 257° |
| 2026-04-23 01:09 | 34.99656 | 134.72027 | 26726 ft | 422 kts | 258° |
| 2026-04-23 01:09 | 34.99016 | 134.68537 | 26888 ft | 422 kts | 255° |
| 2026-04-23 01:09 | 34.98195 | 134.65084 | 26991 ft | 423 kts | 252° |
| 2026-04-23 01:09 | 34.97320 | 134.61702 | 27131 ft | 423 kts | 252° |
| 2026-04-23 01:10 | 34.96416 | 134.58291 | 27338 ft | 423 kts | 252° |
| 2026-04-23 01:10 | 34.95501 | 134.54847 | 27575 ft | 421 kts | 252° |
| 2026-04-23 01:10 | 34.94616 | 134.51506 | 27832 ft | 417 kts | 252° |
| 2026-04-23 01:10 | 34.93716 | 134.48084 | 27868 ft | 419 kts | 252° |
| 2026-04-23 01:11 | 34.92847 | 134.44768 | 27878 ft | 420 kts | 252° |
| 2026-04-23 01:11 | 34.91956 | 134.41357 | 27877 ft | 421 kts | 252° |
| 2026-04-23 01:11 | 34.91067 | 134.37952 | 27876 ft | 421 kts | 252° |
| 2026-04-23 01:11 | 34.90181 | 134.34559 | 27871 ft | 422 kts | 252° |
| 2026-04-23 01:12 | 34.89293 | 134.31154 | 27878 ft | 422 kts | 252° |
| 2026-04-23 01:12 | 34.88400 | 134.27742 | 27887 ft | 422 kts | 252° |
| 2026-04-23 01:12 | 34.87510 | 134.24344 | 27879 ft | 422 kts | 252° |
| 2026-04-23 01:12 | 34.86614 | 134.20934 | 27876 ft | 423 kts | 252° |
| 2026-04-23 01:13 | 34.85718 | 134.17523 | 27879 ft | 423 kts | 252° |
| 2026-04-23 01:13 | 34.84820 | 134.14108 | 27869 ft | 423 kts | 252° |
| 2026-04-23 01:13 | 34.83923 | 134.10703 | 27872 ft | 423 kts | 252° |
| 2026-04-23 01:13 | 34.83027 | 134.07299 | 27859 ft | 423 kts | 252° |
| 2026-04-23 01:14 | 34.82126 | 134.03888 | 27863 ft | 423 kts | 252° |
| 2026-04-23 01:14 | 34.81226 | 134.00487 | 27859 ft | 423 kts | 252° |
| 2026-04-23 01:14 | 34.80322 | 133.97073 | 27870 ft | 423 kts | 252° |
| 2026-04-23 01:14 | 34.79419 | 133.93667 | 27859 ft | 424 kts | 252° |
| 2026-04-23 01:15 | 34.78515 | 133.90264 | 27855 ft | 423 kts | 252° |
| 2026-04-23 01:15 | 34.77610 | 133.86856 | 27857 ft | 423 kts | 252° |
| 2026-04-23 01:15 | 34.76703 | 133.83448 | 27864 ft | 423 kts | 251° |
| 2026-04-23 01:15 | 34.75792 | 133.80030 | 27859 ft | 423 kts | 252° |
| 2026-04-23 01:16 | 34.74885 | 133.76627 | 27863 ft | 423 kts | 251° |
| 2026-04-23 01:16 | 34.73976 | 133.73225 | 27867 ft | 423 kts | 251° |
| 2026-04-23 01:16 | 34.73065 | 133.69819 | 27864 ft | 424 kts | 251° |
| 2026-04-23 01:16 | 34.72153 | 133.66413 | 27867 ft | 424 kts | 251° |
| 2026-04-23 01:17 | 34.71240 | 133.63010 | 27861 ft | 424 kts | 251° |
| 2026-04-23 01:17 | 34.70338 | 133.59646 | 27871 ft | 424 kts | 251° |
| 2026-04-23 01:17 | 34.69423 | 133.56243 | 27868 ft | 424 kts | 251° |
| 2026-04-23 01:17 | 34.68506 | 133.52835 | 27866 ft | 424 kts | 251° |
| 2026-04-23 01:18 | 34.67586 | 133.49422 | 27874 ft | 424 kts | 251° |
| 2026-04-23 01:18 | 34.66669 | 133.46023 | 27871 ft | 424 kts | 251° |
| 2026-04-23 01:18 | 34.65747 | 133.42610 | 27879 ft | 424 kts | 251° |
| 2026-04-23 01:18 | 34.64827 | 133.39206 | 27874 ft | 425 kts | 251° |
| 2026-04-23 01:19 | 34.63904 | 133.35797 | 27873 ft | 425 kts | 251° |
| 2026-04-23 01:19 | 34.62980 | 133.32392 | 27868 ft | 425 kts | 251° |
| 2026-04-23 01:19 | 34.62052 | 133.28975 | 27875 ft | 425 kts | 251° |
| 2026-04-23 01:19 | 34.61126 | 133.25565 | 27863 ft | 425 kts | 251° |
| 2026-04-23 01:20 | 34.60199 | 133.22159 | 27868 ft | 425 kts | 251° |
| 2026-04-23 01:20 | 34.59270 | 133.18752 | 27856 ft | 425 kts | 251° |
| 2026-04-23 01:20 | 34.58340 | 133.15343 | 27846 ft | 426 kts | 251° |
| 2026-04-23 01:20 | 34.57411 | 133.11941 | 27850 ft | 425 kts | 251° |
| 2026-04-23 01:21 | 34.56480 | 133.08536 | 27844 ft | 426 kts | 251° |
| 2026-04-23 01:21 | 34.55547 | 133.05132 | 27852 ft | 425 kts | 251° |
| 2026-04-23 01:21 | 34.54611 | 133.01717 | 27840 ft | 426 kts | 251° |
| 2026-04-23 01:21 | 34.53678 | 132.98317 | 27837 ft | 426 kts | 251° |
| 2026-04-23 01:22 | 34.52751 | 132.94942 | 27834 ft | 426 kts | 251° |
| 2026-04-23 01:22 | 34.51814 | 132.91536 | 27838 ft | 426 kts | 251° |
| 2026-04-23 01:22 | 34.51179 | 132.89231 | 27829 ft | 427 kts | 251° |
| 2026-04-23 01:22 | 34.49931 | 132.84705 | 27831 ft | 427 kts | 251° |
| 2026-04-23 01:23 | 34.48989 | 132.81293 | 27832 ft | 427 kts | 251° |
| 2026-04-23 01:23 | 34.48048 | 132.77889 | 27845 ft | 427 kts | 251° |
| 2026-04-23 01:23 | 34.47100 | 132.74465 | 27837 ft | 428 kts | 251° |
| 2026-04-23 01:23 | 34.46459 | 132.72154 | 27848 ft | 428 kts | 250° |
| 2026-04-23 01:24 | 34.45508 | 132.68734 | 27847 ft | 429 kts | 250° |
| 2026-04-23 01:24 | 34.44553 | 132.65305 | 27847 ft | 429 kts | 250° |
| 2026-04-23 01:24 | 34.43610 | 132.61925 | 27858 ft | 429 kts | 250° |
| 2026-04-23 01:24 | 34.42652 | 132.58491 | 27855 ft | 429 kts | 250° |
| 2026-04-23 01:25 | 34.41694 | 132.55060 | 27853 ft | 430 kts | 250° |
| 2026-04-23 01:25 | 34.40735 | 132.51632 | 27866 ft | 430 kts | 250° |
| 2026-04-23 01:25 | 34.39775 | 132.48202 | 27852 ft | 430 kts | 250° |
| 2026-04-23 01:25 | 34.38817 | 132.44782 | 27851 ft | 429 kts | 250° |
| 2026-04-23 01:26 | 34.37858 | 132.41364 | 27850 ft | 429 kts | 250° |
| 2026-04-23 01:26 | 34.36895 | 132.37937 | 27848 ft | 429 kts | 250° |
| 2026-04-23 01:26 | 34.35935 | 132.34522 | 27847 ft | 428 kts | 250° |
| 2026-04-23 01:26 | 34.34971 | 132.31101 | 27844 ft | 428 kts | 250° |
| 2026-04-23 01:27 | 34.33698 | 132.26585 | 27845 ft | 429 kts | 250° |
| 2026-04-23 01:27 | 34.33058 | 132.24320 | 27840 ft | 429 kts | 250° |
| 2026-04-23 01:27 | 34.32090 | 132.20894 | 27839 ft | 429 kts | 250° |
| 2026-04-23 01:27 | 34.31121 | 132.17471 | 27837 ft | 429 kts | 250° |
| 2026-04-23 01:28 | 34.30154 | 132.14056 | 27836 ft | 429 kts | 250° |
| 2026-04-23 01:28 | 34.29184 | 132.10638 | 27837 ft | 429 kts | 250° |
| 2026-04-23 01:28 | 34.28216 | 132.07228 | 27843 ft | 429 kts | 250° |
| 2026-04-23 01:28 | 34.27246 | 132.03818 | 27832 ft | 429 kts | 250° |
| 2026-04-23 01:29 | 34.26274 | 132.00403 | 27826 ft | 429 kts | 250° |
| 2026-04-23 01:29 | 34.25303 | 131.96997 | 27823 ft | 429 kts | 250° |
| 2026-04-23 01:29 | 34.24331 | 131.93591 | 27816 ft | 428 kts | 250° |
| 2026-04-23 01:29 | 34.23361 | 131.90194 | 27817 ft | 428 kts | 250° |
| 2026-04-23 01:30 | 34.22387 | 131.86787 | 27824 ft | 428 kts | 250° |
| 2026-04-23 01:30 | 34.21416 | 131.83398 | 27809 ft | 428 kts | 250° |
| 2026-04-23 01:30 | 34.20441 | 131.79998 | 27802 ft | 428 kts | 250° |
| 2026-04-23 01:30 | 34.19464 | 131.76594 | 27811 ft | 428 kts | 250° |
| 2026-04-23 01:31 | 34.18487 | 131.73193 | 27807 ft | 428 kts | 250° |
| 2026-04-23 01:31 | 34.17508 | 131.69791 | 27806 ft | 428 kts | 250° |
| 2026-04-23 01:31 | 34.16530 | 131.66395 | 27800 ft | 428 kts | 250° |
| 2026-04-23 01:31 | 34.15552 | 131.63006 | 27803 ft | 428 kts | 250° |
| 2026-04-23 01:32 | 34.14583 | 131.59650 | 27790 ft | 429 kts | 250° |
| 2026-04-23 01:32 | 34.13600 | 131.56250 | 27795 ft | 429 kts | 250° |
| 2026-04-23 01:32 | 34.12617 | 131.52853 | 27791 ft | 429 kts | 250° |
| 2026-04-23 01:32 | 34.11633 | 131.49457 | 27791 ft | 429 kts | 250° |
| 2026-04-23 01:33 | 34.10649 | 131.46064 | 27786 ft | 428 kts | 250° |
| 2026-04-23 01:33 | 34.09679 | 131.42723 | 27787 ft | 428 kts | 250° |
| 2026-04-23 01:33 | 34.08698 | 131.39347 | 27784 ft | 428 kts | 250° |
| 2026-04-23 01:33 | 34.07711 | 131.35959 | 27780 ft | 427 kts | 250° |
| 2026-04-23 01:34 | 34.06721 | 131.32575 | 27784 ft | 427 kts | 249° |
| 2026-04-23 01:34 | 34.05545 | 131.29294 | 27783 ft | 426 kts | 244° |
| 2026-04-23 01:34 | 34.04205 | 131.26095 | 27780 ft | 427 kts | 243° |
| 2026-04-23 01:34 | 34.02850 | 131.22916 | 27776 ft | 426 kts | 243° |
| 2026-04-23 01:35 | 34.01499 | 131.19738 | 27779 ft | 426 kts | 243° |
| 2026-04-23 01:35 | 34.00154 | 131.16544 | 27773 ft | 426 kts | 243° |
| 2026-04-23 01:35 | 33.98820 | 131.13355 | 27780 ft | 426 kts | 243° |
| 2026-04-23 01:35 | 33.97491 | 131.10168 | 27802 ft | 426 kts | 243° |
| 2026-04-23 01:36 | 33.96160 | 131.06978 | 27806 ft | 426 kts | 243° |
| 2026-04-23 01:36 | 33.94831 | 131.03798 | 27807 ft | 426 kts | 243° |
| 2026-04-23 01:36 | 33.93512 | 131.00641 | 27790 ft | 414 kts | 243° |
| 2026-04-23 01:36 | 33.92250 | 130.97617 | 27796 ft | 394 kts | 243° |
| 2026-04-23 01:37 | 33.91045 | 130.94729 | 27796 ft | 377 kts | 243° |
| 2026-04-23 01:37 | 33.89890 | 130.91963 | 27787 ft | 362 kts | 243° |
| 2026-04-23 01:37 | 33.88785 | 130.89318 | 27787 ft | 347 kts | 243° |
| 2026-04-23 01:37 | 33.87735 | 130.86808 | 27786 ft | 333 kts | 243° |
| 2026-04-23 01:38 | 33.86715 | 130.84370 | 27782 ft | 320 kts | 243° |
| 2026-04-23 01:38 | 33.85777 | 130.82131 | 27774 ft | 307 kts | 243° |
| 2026-04-23 01:38 | 33.84834 | 130.79881 | 27779 ft | 294 kts | 244° |
| 2026-04-23 01:38 | 33.83934 | 130.77736 | 27787 ft | 281 kts | 243° |
| 2026-04-23 01:39 | 33.83069 | 130.75674 | 27767 ft | 271 kts | 243° |
| 2026-04-23 01:39 | 33.82238 | 130.73694 | 27771 ft | 261 kts | 244° |
| 2026-04-23 01:39 | 33.81416 | 130.71735 | 27797 ft | 267 kts | 243° |
| 2026-04-23 01:39 | 33.80561 | 130.69699 | 27807 ft | 278 kts | 243° |
| 2026-04-23 01:40 | 33.79675 | 130.67592 | 27790 ft | 286 kts | 243° |
| 2026-04-23 01:40 | 33.78776 | 130.65456 | 27776 ft | 285 kts | 244° |
| 2026-04-23 01:40 | 33.77884 | 130.63335 | 27776 ft | 283 kts | 243° |
| 2026-04-23 01:40 | 33.76996 | 130.61226 | 27778 ft | 282 kts | 243° |
| 2026-04-23 01:41 | 33.76111 | 130.59129 | 27780 ft | 281 kts | 243° |
| 2026-04-23 01:41 | 33.75237 | 130.57059 | 27769 ft | 280 kts | 243° |
| 2026-04-23 01:41 | 33.74359 | 130.54979 | 27778 ft | 278 kts | 244° |
| 2026-04-23 01:41 | 33.73475 | 130.52885 | 27782 ft | 278 kts | 244° |
| 2026-04-23 01:42 | 33.72613 | 130.50844 | 27775 ft | 277 kts | 244° |
| 2026-04-23 01:42 | 33.71742 | 130.48783 | 27771 ft | 276 kts | 244° |
| 2026-04-23 01:42 | 33.70872 | 130.46726 | 27780 ft | 276 kts | 244° |
| 2026-04-23 01:42 | 33.70004 | 130.44676 | 27779 ft | 275 kts | 244° |
| 2026-04-23 01:43 | 33.69138 | 130.42634 | 27780 ft | 275 kts | 243° |
| 2026-04-23 01:43 | 33.68146 | 130.40684 | 27768 ft | 276 kts | 233° |
| 2026-04-23 01:43 | 33.66828 | 130.38999 | 27787 ft | 278 kts | 227° |
| 2026-04-23 01:43 | 33.65285 | 130.37561 | 27784 ft | 283 kts | 217° |
| 2026-04-23 01:44 | 33.63551 | 130.36423 | 27793 ft | 286 kts | 214° |
| 2026-04-23 01:44 | 33.61776 | 130.35338 | 27781 ft | 287 kts | 213° |
| 2026-04-23 01:44 | 33.59984 | 130.34256 | 27784 ft | 288 kts | 213° |
| 2026-04-23 01:44 | 33.58197 | 130.33174 | 27782 ft | 289 kts | 213° |
| 2026-04-23 01:45 | 33.56399 | 130.32080 | 27756 ft | 290 kts | 214° |
| 2026-04-23 01:45 | 33.54599 | 130.30981 | 27754 ft | 290 kts | 214° |
| 2026-04-23 01:45 | 33.52805 | 130.29884 | 27732 ft | 286 kts | 214° |
| 2026-04-23 01:45 | 33.51053 | 130.28814 | 27583 ft | 279 kts | 214° |
| 2026-04-23 01:46 | 33.49326 | 130.27756 | 27222 ft | 279 kts | 214° |
| 2026-04-23 01:46 | 33.47590 | 130.26688 | 26783 ft | 281 kts | 214° |
| 2026-04-23 01:46 | 33.45866 | 130.25627 | 26417 ft | 282 kts | 214° |
| 2026-04-23 01:46 | 33.44146 | 130.24471 | 26090 ft | 275 kts | 225° |
| 2026-04-23 01:47 | 33.42988 | 130.22728 | 25746 ft | 267 kts | 249° |
| 2026-04-23 01:47 | 33.42663 | 130.20581 | 25397 ft | 270 kts | 271° |
| 2026-04-23 01:47 | 33.43235 | 130.18411 | 25063 ft | 284 kts | 295° |
| 2026-04-23 01:47 | 33.44639 | 130.16667 | 24734 ft | 303 kts | 319° |
| 2026-04-23 01:48 | 33.46661 | 130.15723 | 24441 ft | 324 kts | 342° |
| 2026-04-23 01:48 | 33.48973 | 130.15804 | 24124 ft | 343 kts | 6° |
| 2026-04-23 01:48 | 33.51217 | 130.16912 | 23855 ft | 354 kts | 23° |
| 2026-04-23 01:48 | 33.53329 | 130.18435 | 23599 ft | 354 kts | 26° |
| 2026-04-23 01:49 | 33.55405 | 130.20015 | 23323 ft | 353 kts | 27° |
| 2026-04-23 01:49 | 33.57476 | 130.21605 | 23029 ft | 352 kts | 27° |
| 2026-04-23 01:49 | 33.59532 | 130.23186 | 22745 ft | 349 kts | 27° |
| 2026-04-23 01:49 | 33.61568 | 130.24754 | 22465 ft | 347 kts | 27° |
| 2026-04-23 01:50 | 33.63596 | 130.26312 | 22171 ft | 345 kts | 27° |
| 2026-04-23 01:50 | 33.65620 | 130.27865 | 21889 ft | 344 kts | 27° |
| 2026-04-23 01:50 | 33.67634 | 130.29407 | 21609 ft | 342 kts | 27° |
| 2026-04-23 01:50 | 33.69635 | 130.30934 | 21338 ft | 340 kts | 27° |
| 2026-04-23 01:51 | 33.71632 | 130.32455 | 21067 ft | 338 kts | 27° |
| 2026-04-23 01:51 | 33.73589 | 130.33943 | 20808 ft | 336 kts | 27° |
| 2026-04-23 01:51 | 33.75559 | 130.35439 | 20535 ft | 335 kts | 27° |
| 2026-04-23 01:51 | 33.77463 | 130.37140 | 19802 ft | 355 kts | 45° |
| 2026-04-23 01:52 | 33.78736 | 130.39787 | 18936 ft | 379 kts | 77° |
| 2026-04-23 01:52 | 33.78894 | 130.42914 | 18548 ft | 374 kts | 104° |
| 2026-04-23 01:52 | 33.77963 | 130.45752 | 18149 ft | 361 kts | 132° |
| 2026-04-23 01:52 | 33.76172 | 130.47720 | 17777 ft | 341 kts | 159° |
| 2026-04-23 01:53 | 33.73976 | 130.48442 | 17383 ft | 321 kts | 187° |
| 2026-04-23 01:53 | 33.71886 | 130.47833 | 16987 ft | 304 kts | 214° |
| 2026-04-23 01:53 | 33.70412 | 130.46123 | 16618 ft | 295 kts | 240° |
| 2026-04-23 01:53 | 33.69550 | 130.43901 | 16269 ft | 293 kts | 250° |
| 2026-04-23 01:54 | 33.68666 | 130.41696 | 15885 ft | 295 kts | 236° |
| 2026-04-23 01:54 | 33.67308 | 130.39858 | 15526 ft | 296 kts | 226° |
| 2026-04-23 01:54 | 33.65760 | 130.38211 | 15162 ft | 298 kts | 221° |
| 2026-04-23 01:54 | 33.64048 | 130.36792 | 14793 ft | 301 kts | 213° |
| 2026-04-23 01:55 | 33.62209 | 130.35618 | 14516 ft | 299 kts | 211° |
| 2026-04-23 01:55 | 33.60355 | 130.34486 | 14217 ft | 298 kts | 210° |
| 2026-04-23 01:55 | 33.58517 | 130.33372 | 13979 ft | 294 kts | 210° |
| 2026-04-23 01:55 | 33.56705 | 130.32271 | 13749 ft | 290 kts | 210° |
| 2026-04-23 01:56 | 33.54910 | 130.31176 | 13522 ft | 287 kts | 211° |
| 2026-04-23 01:56 | 33.53144 | 130.30096 | 13239 ft | 283 kts | 211° |
| 2026-04-23 01:56 | 33.51401 | 130.29027 | 12977 ft | 280 kts | 211° |
| 2026-04-23 01:56 | 33.49669 | 130.27964 | 12726 ft | 277 kts | 211° |
| 2026-04-23 01:57 | 33.47961 | 130.26915 | 12476 ft | 274 kts | 211° |
| 2026-04-23 01:57 | 33.46271 | 130.25878 | 12214 ft | 272 kts | 211° |
| 2026-04-23 01:57 | 33.44600 | 130.24852 | 11985 ft | 269 kts | 211° |
| 2026-04-23 01:57 | 33.42941 | 130.23834 | 11736 ft | 267 kts | 211° |
| 2026-04-23 01:58 | 33.41288 | 130.22819 | 11490 ft | 265 kts | 210° |
| 2026-04-23 01:58 | 33.39648 | 130.21813 | 11227 ft | 264 kts | 210° |
| 2026-04-23 01:58 | 33.38021 | 130.20815 | 10976 ft | 261 kts | 210° |
| 2026-04-23 01:58 | 33.36435 | 130.19843 | 10788 ft | 255 kts | 210° |
| 2026-04-23 01:59 | 33.34870 | 130.18887 | 10721 ft | 245 kts | 211° |
| 2026-04-23 01:59 | 33.33418 | 130.17980 | 10730 ft | 231 kts | 216° |
| 2026-04-23 01:59 | 33.32283 | 130.16705 | 10571 ft | 222 kts | 231° |
| 2026-04-23 01:59 | 33.31281 | 130.15297 | 10360 ft | 221 kts | 231° |
| 2026-04-23 02:00 | 33.30285 | 130.13899 | 10126 ft | 221 kts | 231° |
| 2026-04-23 02:00 | 33.29288 | 130.12503 | 9888 ft | 221 kts | 231° |
| 2026-04-23 02:00 | 33.28287 | 130.11102 | 9655 ft | 221 kts | 231° |
| 2026-04-23 02:00 | 33.27288 | 130.09708 | 9388 ft | 220 kts | 231° |
| 2026-04-23 02:01 | 33.26299 | 130.08331 | 9177 ft | 217 kts | 231° |
| 2026-04-23 02:01 | 33.25330 | 130.06982 | 8933 ft | 211 kts | 230° |
| 2026-04-23 02:01 | 33.24388 | 130.05673 | 8690 ft | 206 kts | 231° |
| 2026-04-23 02:01 | 33.23455 | 130.04376 | 8453 ft | 206 kts | 230° |
| 2026-04-23 02:02 | 33.22521 | 130.03080 | 8192 ft | 205 kts | 230° |
| 2026-04-23 02:02 | 33.21594 | 130.01793 | 7934 ft | 204 kts | 230° |
| 2026-04-23 02:02 | 33.20669 | 130.00510 | 7693 ft | 203 kts | 230° |
| 2026-04-23 02:02 | 33.19754 | 129.99243 | 7442 ft | 201 kts | 230° |
| 2026-04-23 02:03 | 33.18839 | 129.97976 | 7205 ft | 201 kts | 230° |
| 2026-04-23 02:03 | 33.17926 | 129.96711 | 6938 ft | 202 kts | 229° |
| 2026-04-23 02:03 | 33.17021 | 129.95460 | 6700 ft | 201 kts | 229° |
| 2026-04-23 02:03 | 33.16104 | 129.94191 | 6458 ft | 202 kts | 229° |
| 2026-04-23 02:04 | 33.15185 | 129.92919 | 6233 ft | 203 kts | 229° |
| 2026-04-23 02:04 | 33.14261 | 129.91642 | 5990 ft | 204 kts | 229° |
| 2026-04-23 02:04 | 33.13337 | 129.90365 | 5733 ft | 204 kts | 229° |
| 2026-04-23 02:04 | 33.12405 | 129.89078 | 5494 ft | 206 kts | 229° |
| 2026-04-23 02:05 | 33.11462 | 129.87777 | 5243 ft | 207 kts | 229° |
| 2026-04-23 02:05 | 33.10449 | 129.86568 | 4972 ft | 207 kts | 211° |
| 2026-04-23 02:05 | 33.09074 | 129.86164 | 4724 ft | 205 kts | 175° |
| 2026-04-23 02:05 | 33.07727 | 129.86645 | 4492 ft | 202 kts | 155° |
| 2026-04-23 02:06 | 33.06483 | 129.87417 | 4228 ft | 201 kts | 151° |
| 2026-04-23 02:06 | 33.05269 | 129.88211 | 3965 ft | 198 kts | 150° |
| 2026-04-23 02:06 | 33.04070 | 129.88997 | 3697 ft | 195 kts | 150° |
| 2026-04-23 02:06 | 33.02885 | 129.89769 | 3452 ft | 194 kts | 150° |
| 2026-04-23 02:07 | 33.01717 | 129.90527 | 3202 ft | 193 kts | 150° |
| 2026-04-23 02:07 | 33.00550 | 129.91282 | 2961 ft | 187 kts | 149° |
| 2026-04-23 02:07 | 32.99446 | 129.91992 | 2765 ft | 174 kts | 149° |
| 2026-04-23 02:07 | 32.98405 | 129.92661 | 2489 ft | 166 kts | 148° |
| 2026-04-23 02:08 | 32.97408 | 129.93301 | 2212 ft | 160 kts | 148° |
| 2026-04-23 02:08 | 32.96443 | 129.93920 | 1923 ft | 155 kts | 148° |
| 2026-04-23 02:08 | 32.95500 | 129.94527 | 1743 ft | 154 kts | 147° |
| 2026-04-23 02:08 | 32.94866 | 129.94940 | 1730 ft | 157 kts | 148° |
| 2026-04-23 02:09 | 32.93910 | 129.95555 | 1708 ft | 157 kts | 148° |
| 2026-04-23 02:09 | 32.92927 | 129.96182 | 1712 ft | 160 kts | 148° |
| 2026-04-23 02:09 | 32.91938 | 129.96787 | 1690 ft | 160 kts | 156° |
| 2026-04-23 02:09 | 32.90847 | 129.96799 | 1716 ft | 162 kts | 194° |
| 2026-04-23 02:10 | 32.89886 | 129.96087 | 1698 ft | 166 kts | 230° |
| 2026-04-23 02:10 | 32.89355 | 129.94890 | 1680 ft | 166 kts | 269° |
| 2026-04-23 02:10 | 32.89617 | 129.93620 | 1688 ft | 157 kts | 307° |
| 2026-04-23 02:10 | 32.90412 | 129.92869 | 1710 ft | 144 kts | 331° |
| 2026-04-23 02:11 | 32.91007 | 129.91939 | 1715 ft | 144 kts | 294° |
| 2026-04-23 02:11 | 32.91569 | 129.90820 | 1711 ft | 170 kts | 321° |
| 2026-04-23 02:11 | 32.92329 | 129.89767 | 1676 ft | 172 kts | 291° |
| 2026-04-23 02:11 | 32.92516 | 129.88345 | 1703 ft | 176 kts | 283° |
| 2026-04-23 02:12 | 32.92827 | 129.86981 | 1701 ft | 171 kts | 290° |
| 2026-04-23 02:12 | 32.93231 | 129.85651 | 1687 ft | 171 kts | 308° |
| 2026-04-23 02:12 | 32.94180 | 129.84989 | 1708 ft | 158 kts | 359° |
| 2026-04-23 02:12 | 32.95217 | 129.85295 | 1707 ft | 155 kts | 33° |
| 2026-04-23 02:13 | 32.95944 | 129.86213 | 1683 ft | 156 kts | 70° |
| 2026-04-23 02:13 | 32.95882 | 129.87485 | 1684 ft | 160 kts | 112° |
| 2026-04-23 02:13 | 32.95266 | 129.88594 | 1710 ft | 162 kts | 121° |
| 2026-04-23 02:13 | 32.94627 | 129.89701 | 1713 ft | 164 kts | 120° |
| 2026-04-23 02:14 | 32.93974 | 129.90833 | 1710 ft | 166 kts | 121° |
| 2026-04-23 02:14 | 32.93322 | 129.91960 | 1699 ft | 165 kts | 121° |
| 2026-04-23 02:14 | 32.92669 | 129.93085 | 1693 ft | 165 kts | 121° |
| 2026-04-23 02:14 | 32.92018 | 129.94205 | 1694 ft | 165 kts | 121° |
| 2026-04-23 02:15 | 32.90712 | 129.96450 | 1699 ft | 165 kts | 121° |
| 2026-04-23 02:15 | 32.90061 | 129.97566 | 1700 ft | 164 kts | 121° |
| 2026-04-23 02:15 | 32.89415 | 129.98675 | 1687 ft | 164 kts | 121° |
| 2026-04-23 02:16 | 32.88760 | 129.99798 | 1694 ft | 164 kts | 121° |
| 2026-04-23 02:16 | 32.88109 | 130.00912 | 1707 ft | 166 kts | 121° |
| 2026-04-23 02:16 | 32.87443 | 130.02056 | 1710 ft | 171 kts | 121° |
| 2026-04-23 02:16 | 32.86774 | 130.03199 | 1703 ft | 167 kts | 121° |
| 2026-04-23 02:17 | 32.86123 | 130.04311 | 1684 ft | 164 kts | 121° |
| 2026-04-23 02:17 | 32.85460 | 130.05446 | 1709 ft | 167 kts | 121° |
| 2026-04-23 02:17 | 32.84802 | 130.06571 | 1699 ft | 164 kts | 121° |
| 2026-04-23 02:17 | 32.84152 | 130.07680 | 1708 ft | 162 kts | 121° |
| 2026-04-23 02:18 | 32.83504 | 130.08790 | 1698 ft | 163 kts | 121° |
| 2026-04-23 02:18 | 32.82853 | 130.09898 | 1715 ft | 166 kts | 121° |
| 2026-04-23 02:18 | 32.82195 | 130.11023 | 1714 ft | 164 kts | 121° |
| 2026-04-23 02:18 | 32.81535 | 130.12150 | 1723 ft | 168 kts | 121° |
| 2026-04-23 02:19 | 32.80763 | 130.13197 | 1701 ft | 172 kts | 147° |
| 2026-04-23 02:19 | 32.79595 | 130.13393 | 1683 ft | 175 kts | 197° |
| 2026-04-23 02:19 | 32.78659 | 130.12523 | 1723 ft | 173 kts | 230° |
| 2026-04-23 02:19 | 32.77853 | 130.11439 | 1723 ft | 175 kts | 230° |
| 2026-04-23 02:20 | 32.77365 | 130.10181 | 1690 ft | 170 kts | 271° |
| 2026-04-23 02:20 | 32.77609 | 130.08808 | 1711 ft | 170 kts | 292° |
| 2026-04-23 02:20 | 32.77975 | 130.07480 | 1707 ft | 170 kts | 291° |
| 2026-04-23 02:20 | 32.78364 | 130.06151 | 1704 ft | 168 kts | 300° |
| 2026-04-23 02:21 | 32.79092 | 130.05098 | 1698 ft | 166 kts | 317° |
| 2026-04-23 02:21 | 32.79878 | 130.04107 | 1700 ft | 164 kts | 318° |
| 2026-04-23 02:21 | 32.80699 | 130.03167 | 1720 ft | 168 kts | 320° |
| 2026-04-23 02:21 | 32.81572 | 130.02212 | 1699 ft | 168 kts | 321° |
| 2026-04-23 02:22 | 32.82436 | 130.01287 | 1731 ft | 171 kts | 321° |
| 2026-04-23 02:22 | 32.83319 | 130.00334 | 1725 ft | 171 kts | 321° |
| 2026-04-23 02:22 | 32.84198 | 129.99387 | 1692 ft | 170 kts | 322° |
| 2026-04-23 02:22 | 32.85070 | 129.98452 | 1506 ft | 168 kts | 321° |
| 2026-04-23 02:23 | 32.85924 | 129.97536 | 1290 ft | 162 kts | 321° |
| 2026-04-23 02:23 | 32.86763 | 129.96635 | 1060 ft | 163 kts | 321° |
| 2026-04-23 02:23 | 32.87597 | 129.95741 | 831 ft | 157 kts | 319° |
| 2026-04-23 02:23 | 32.88381 | 129.94899 | 639 ft | 147 kts | 319° |
| 2026-04-23 02:24 | 32.89116 | 129.94111 | 459 ft | 139 kts | 318° |
| 2026-04-23 02:24 | 32.89845 | 129.93326 | 302 ft | 143 kts | 318° |
| 2026-04-23 02:24 | 32.90575 | 129.92544 | 86 ft | 139 kts | 318° |
| 2026-04-23 02:24 | 32.91260 | 129.91811 | 20 ft | 123 kts | 318° |
| 2026-04-23 02:25 | 32.91626 | 129.91420 | 13 ft | 18 kts | 318° |
| 2026-04-23 02:25 | 32.91634 | 129.91411 | 12 ft | 2 kts | 318° |
| 2026-04-23 02:25 | 32.91672 | 129.91371 | 12 ft | 13 kts | 318° |
| 2026-04-23 02:25 | 32.91767 | 129.91268 | 12 ft | 24 kts | 317° |
| 2026-04-23 02:26 | 32.91891 | 129.91136 | 13 ft | 23 kts | 323° |
| 2026-04-23 02:26 | 32.91997 | 129.91142 | 12 ft | 16 kts | 47° |
| 2026-04-23 02:26 | 32.92035 | 129.91240 | 10 ft | 13 kts | 100° |
| 2026-04-23 02:26 | 32.91978 | 129.91317 | 9 ft | 13 kts | 137° |
| 2026-04-23 02:27 | 32.91914 | 129.91387 | 8 ft | 12 kts | 138° |
| 2026-04-23 02:27 | 32.91850 | 129.91454 | 8 ft | 12 kts | 139° |
| 2026-04-23 02:27 | 32.91789 | 129.91519 | 12 ft | 12 kts | 137° |
| 2026-04-23 02:27 | 32.91730 | 129.91584 | 9 ft | 11 kts | 138° |
| 2026-04-23 02:28 | 32.91672 | 129.91645 | 10 ft | 11 kts | 138° |
| 2026-04-23 02:28 | 32.91616 | 129.91705 | 12 ft | 11 kts | 138° |
| 2026-04-23 02:28 | 32.91562 | 129.91764 | 13 ft | 10 kts | 137° |
| 2026-04-23 02:28 | 32.91509 | 129.91820 | 13 ft | 10 kts | 138° |
| 2026-04-23 02:29 | 32.91457 | 129.91876 | 12 ft | 10 kts | 138° |
| 2026-04-23 02:29 | 32.91406 | 129.91929 | 14 ft | 10 kts | 139° |
| 2026-04-23 02:29 | 32.91357 | 129.91981 | 13 ft | 9 kts | 137° |
| 2026-04-23 02:29 | 32.91341 | 129.92032 | 12 ft | 7 kts | 50° |
| 2026-04-23 02:30 | 32.91374 | 129.92072 | 12 ft | 7 kts | 48° |
| 2026-04-23 02:30 | 32.91406 | 129.92112 | 13 ft | 7 kts | 47° |
| 2026-04-23 02:30 | 32.91420 | 129.92131 | 13 ft | 2 kts | 47° |
| 2026-04-23 02:30 | 32.91421 | 129.92133 | 13 ft | 0 kts | 47° |